Terminal Aerodrome Forecast
Issued by NWS

Home | Current Version | Previous Version | Text Only | Print | Product List | Glossary On
Versions: 1 2 3 4 5 6 7 8 9 10 11 12 13 14 15 16 17 18 19 20 21 22 23 24 25 26
000
FTUS43 KAPX 161100
TAFTVC
TAF
KTVC 161121Z 1612/1712 16003KT P6SM SKC
     FM161400 16007KT P6SM SCT040 BKN080
     FM162300 12009KT P6SM OVC120
     FM170200 11007KT P6SM OVC100 WS020/17040KT=

USA.gov is the U.S. government's official web portal to all federal, state and local government web resources and services.